sensor_id;sensor_type;location;lat;lon;timestamp;P1;durP1;ratioP1;P2;durP2;ratioP2
61570;SDS011;47463;49.884;10.010;2023-03-01T00:00:00;26.8;;;18.2;;
61570;SDS011;47463;49.884;10.010;2023-03-01T00:05:00;29.3;;;18.1;;
61570;SDS011;47463;49.884;10.010;2023-03-01T00:10:00;30;;;18.8;;
61570;SDS011;47463;49.884;10.010;2023-03-01T00:15:00;26.9;;;17.9;;
61570;SDS011;47463;49.884;10.010;2023-03-01T00:20:00;27.9;;;18.1;;
61570;SDS011;47463;49.884;10.010;2023-03-01T00:25:00;27.9;;;18.1;;
61570;SDS011;47463;49.884;10.010;2023-03-01T00:30:00;27.2;;;17.8;;
61570;SDS011;47463;49.884;10.010;2023-03-01T00:35:00;26;;;18.1;;
61570;SDS011;47463;49.884;10.010;2023-03-01T00:40:00;27.9;;;18.1;;
61570;SDS011;47463;49.884;10.010;2023-03-01T00:45:00;27.2;;;17.9;;
61570;SDS011;47463;49.884;10.010;2023-03-01T00:50:00;24.9;;;17.7;;
61570;SDS011;47463;49.884;10.010;2023-03-01T00:55:00;24.9;;;17.7;;
61570;SDS011;47463;49.884;10.010;2023-03-01T01:00:00;27.4;;;19.2;;
61570;SDS011;47463;49.884;10.010;2023-03-01T01:05:00;28.1;;;17.9;;
61570;SDS011;47463;49.884;10.010;2023-03-01T01:10:00;31.9;;;19.2;;
61570;SDS011;47463;49.884;10.010;2023-03-01T01:15:00;25.7;;;18.2;;
61570;SDS011;47463;49.884;10.010;2023-03-01T01:20:00;28.2;;;18.2;;
61570;SDS011;47463;49.884;10.010;2023-03-01T01:25:00;28.2;;;18.2;;
61570;SDS011;47463;49.884;10.010;2023-03-01T01:30:00;31.5;;;18.3;;
61570;SDS011;47463;49.884;10.010;2023-03-01T01:35:00;27.4;;;18;;
61570;SDS011;47463;49.884;10.010;2023-03-01T01:40:00;26.1;;;18.4;;
61570;SDS011;47463;49.884;10.010;2023-03-01T01:45:32;29.3;;;18.7;;
61570;SDS011;47463;49.884;10.010;2023-03-01T01:50:00;30.8;;;18.3;;
61570;SDS011;47463;49.884;10.010;2023-03-01T01:55:00;30.8;;;18.3;;
61570;SDS011;47463;49.884;10.010;2023-03-01T02:00:00;28.5;;;18.1;;
61570;SDS011;47463;49.884;10.010;2023-03-01T02:05:01;28.9;;;18.4;;
61570;SDS011;47463;49.884;10.010;2023-03-01T02:10:00;28;;;18.4;;
61570;SDS011;47463;49.884;10.010;2023-03-01T02:15:00;28.4;;;18.1;;
61570;SDS011;47463;49.884;10.010;2023-03-01T02:20:03;26.6;;;18.5;;
61570;SDS011;47463;49.884;10.010;2023-03-01T02:25:03;26.6;;;18.5;;
61570;SDS011;47463;49.884;10.010;2023-03-01T02:30:00;28.8;;;18.6;;
61570;SDS011;47463;49.884;10.010;2023-03-01T02:35:00;26.4;;;18.1;;
61570;SDS011;47463;49.884;10.010;2023-03-01T02:40:01;30.8;;;18.4;;
61570;SDS011;47463;49.884;10.010;2023-03-01T02:45:00;27.7;;;18.1;;
61570;SDS011;47463;49.884;10.010;2023-03-01T02:50:00;32.5;;;19.3;;
61570;SDS011;47463;49.884;10.010;2023-03-01T02:55:01;32.5;;;19.3;;
61570;SDS011;47463;49.884;10.010;2023-03-01T03:00:01;29.8;;;18.5;;
61570;SDS011;47463;49.884;10.010;2023-03-01T03:05:00;29.2;;;18.5;;
61570;SDS011;47463;49.884;10.010;2023-03-01T03:10:00;33.2;;;19.3;;
61570;SDS011;47463;49.884;10.010;2023-03-01T03:15:00;26.1;;;17.6;;
61570;SDS011;47463;49.884;10.010;2023-03-01T03:20:00;27.1;;;18.5;;
61570;SDS011;47463;49.884;10.010;2023-03-01T03:25:00;27.1;;;18.5;;
61570;SDS011;47463;49.884;10.010;2023-03-01T03:30:00;26.8;;;18.1;;
61570;SDS011;47463;49.884;10.010;2023-03-01T03:35:00;27.6;;;18.1;;
61570;SDS011;47463;49.884;10.010;2023-03-01T03:40:00;27.6;;;18.9;;
61570;SDS011;47463;49.884;10.010;2023-03-01T03:45:00;29;;;18.2;;
61570;SDS011;47463;49.884;10.010;2023-03-01T03:50:00;25.5;;;17.9;;
61570;SDS011;47463;49.884;10.010;2023-03-01T03:55:00;25.5;;;17.9;;
61570;SDS011;47463;49.884;10.010;2023-03-01T04:00:00;30.2;;;18.6;;
61570;SDS011;47463;49.884;10.010;2023-03-01T04:05:00;26;;;17.5;;
61570;SDS011;47463;49.884;10.010;2023-03-01T04:10:00;27;;;18.3;;
61570;SDS011;47463;49.884;10.010;2023-03-01T04:15:00;27.9;;;17.6;;
61570;SDS011;47463;49.884;10.010;2023-03-01T04:20:00;28;;;18.2;;
61570;SDS011;47463;49.884;10.010;2023-03-01T04:25:00;28;;;18.2;;
61570;SDS011;47463;49.884;10.010;2023-03-01T04:30:00;26.4;;;18;;
61570;SDS011;47463;49.884;10.010;2023-03-01T04:35:00;28.3;;;18.1;;
61570;SDS011;47463;49.884;10.010;2023-03-01T04:40:00;26;;;17.6;;
61570;SDS011;47463;49.884;10.010;2023-03-01T04:45:00;28.2;;;17.7;;
61570;SDS011;47463;49.884;10.010;2023-03-01T04:50:00;26.5;;;17.8;;
61570;SDS011;47463;49.884;10.010;2023-03-01T04:55:00;26.5;;;17.8;;
61570;SDS011;47463;49.884;10.010;2023-03-01T05:00:00;29;;;18.6;;
61570;SDS011;47463;49.884;10.010;2023-03-01T05:05:00;27.3;;;18.5;;
61570;SDS011;47463;49.884;10.010;2023-03-01T05:10:00;26.4;;;17.9;;
61570;SDS011;47463;49.884;10.010;2023-03-01T05:15:00;27.5;;;18.2;;
61570;SDS011;47463;49.884;10.010;2023-03-01T05:20:00;25.8;;;17.5;;
61570;SDS011;47463;49.884;10.010;2023-03-01T05:25:00;25.8;;;17.5;;
61570;SDS011;47463;49.884;10.010;2023-03-01T05:30:00;25.1;;;17.3;;
61570;SDS011;47463;49.884;10.010;2023-03-01T05:35:00;23.5;;;16.8;;
61570;SDS011;47463;49.884;10.010;2023-03-01T05:40:00;27.3;;;18.1;;
61570;SDS011;47463;49.884;10.010;2023-03-01T05:45:00;30.8;;;18.4;;
61570;SDS011;47463;49.884;10.010;2023-03-01T05:50:00;27.6;;;18.6;;
61570;SDS011;47463;49.884;10.010;2023-03-01T05:55:00;27.6;;;18.6;;
61570;SDS011;47463;49.884;10.010;2023-03-01T06:00:00;29.1;;;18.2;;
61570;SDS011;47463;49.884;10.010;2023-03-01T06:05:00;25.5;;;18.2;;
61570;SDS011;47463;49.884;10.010;2023-03-01T06:10:00;29.9;;;18.5;;
61570;SDS011;47463;49.884;10.010;2023-03-01T06:15:00;30.7;;;19.1;;
61570;SDS011;47463;49.884;10.010;2023-03-01T06:20:00;28.1;;;18.4;;
61570;SDS011;47463;49.884;10.010;2023-03-01T06:25:00;28.1;;;18.4;;
61570;SDS011;47463;49.884;10.010;2023-03-01T06:30:00;24.7;;;17.1;;
61570;SDS011;47463;49.884;10.010;2023-03-01T06:35:00;24.8;;;17.6;;
61570;SDS011;47463;49.884;10.010;2023-03-01T06:40:00;25.3;;;17.6;;
61570;SDS011;47463;49.884;10.010;2023-03-01T06:45:00;20.8;;;16.7;;
61570;SDS011;47463;49.884;10.010;2023-03-01T06:50:00;23.9;;;17.3;;
61570;SDS011;47463;49.884;10.010;2023-03-01T06:55:00;23.9;;;17.3;;
61570;SDS011;47463;49.884;10.010;2023-03-01T07:00:00;21.8;;;17.3;;
61570;SDS011;47463;49.884;10.010;2023-03-01T07:05:00;22.4;;;17.6;;
61570;SDS011;47463;49.884;10.010;2023-03-01T07:10:00;22.1;;;17.8;;
61570;SDS011;47463;49.884;10.010;2023-03-01T07:15:00;20;;;17.6;;
61570;SDS011;47463;49.884;10.010;2023-03-01T07:20:00;20.6;;;18;;
61570;SDS011;47463;49.884;10.010;2023-03-01T07:25:00;20.6;;;18;;
61570;SDS011;47463;49.884;10.010;2023-03-01T07:30:00;22.8;;;19.5;;
61570;SDS011;47463;49.884;10.010;2023-03-01T07:35:00;21.2;;;18.7;;
61570;SDS011;47463;49.884;10.010;2023-03-01T07:40:00;21.6;;;19.6;;
61570;SDS011;47463;49.884;10.010;2023-03-01T07:45:00;21.7;;;19;;
61570;SDS011;47463;49.884;10.010;2023-03-01T07:50:00;21.8;;;19.5;;
61570;SDS011;47463;49.884;10.010;2023-03-01T07:55:00;21.8;;;19.5;;
61570;SDS011;47463;49.884;10.010;2023-03-01T08:00:00;21.9;;;20.1;;
61570;SDS011;47463;49.884;10.010;2023-03-01T08:05:00;21.4;;;20.3;;
61570;SDS011;47463;49.884;10.010;2023-03-01T08:10:00;22.6;;;20.6;;
61570;SDS011;47463;49.884;10.010;2023-03-01T08:15:00;21.6;;;20.8;;
61570;SDS011;47463;49.884;10.010;2023-03-01T08:20:00;22.6;;;20.7;;
61570;SDS011;47463;49.884;10.010;2023-03-01T08:25:00;22.6;;;20.7;;
61570;SDS011;47463;49.884;10.010;2023-03-01T08:30:00;21.7;;;20.9;;
61570;SDS011;47463;49.884;10.010;2023-03-01T08:35:00;23.4;;;21.3;;
61570;SDS011;47463;49.884;10.010;2023-03-01T08:40:00;23.1;;;21.1;;
61570;SDS011;47463;49.884;10.010;2023-03-01T08:45:00;23.1;;;21.1;;
61570;SDS011;47463;49.884;10.010;2023-03-01T08:50:00;23.2;;;21.4;;
61570;SDS011;47463;49.884;10.010;2023-03-01T08:55:00;23.2;;;21.4;;
61570;SDS011;47463;49.884;10.010;2023-03-01T09:00:00;25;;;22.6;;
61570;SDS011;47463;49.884;10.010;2023-03-01T09:05:00;23.1;;;21.8;;
61570;SDS011;47463;49.884;10.010;2023-03-01T09:10:00;23.5;;;22.9;;
61570;SDS011;47463;49.884;10.010;2023-03-01T09:15:00;21.7;;;22.7;;
61570;SDS011;47463;49.884;10.010;2023-03-01T09:20:00;21.8;;;22.1;;
61570;SDS011;47463;49.884;10.010;2023-03-01T09:25:00;21.8;;;22.1;;
61570;SDS011;47463;49.884;10.010;2023-03-01T09:30:00;23.1;;;22.6;;
61570;SDS011;47463;49.884;10.010;2023-03-01T09:35:00;24.3;;;23;;
61570;SDS011;47463;49.884;10.010;2023-03-01T09:40:00;27.4;;;22.9;;
61570;SDS011;47463;49.884;10.010;2023-03-01T09:45:00;24.8;;;20.6;;
61570;SDS011;47463;49.884;10.010;2023-03-01T09:50:02;26.1;;;20.8;;
61570;SDS011;47463;49.884;10.010;2023-03-01T09:55:00;26.1;;;20.8;;
61570;SDS011;47463;49.884;10.010;2023-03-01T10:00:03;25.3;;;19.8;;
61570;SDS011;47463;49.884;10.010;2023-03-01T10:05:03;26.9;;;19;;
61570;SDS011;47463;49.884;10.010;2023-03-01T10:10:00;23.2;;;18.9;;
61570;SDS011;47463;49.884;10.010;2023-03-01T10:15:00;26.6;;;19.7;;
61570;SDS011;47463;49.884;10.010;2023-03-01T10:20:09;24.7;;;18.8;;
61570;SDS011;47463;49.884;10.010;2023-03-01T10:25:02;24.7;;;18.8;;
61570;SDS011;47463;49.884;10.010;2023-03-01T10:30:02;24.4;;;18.8;;
61570;SDS011;47463;49.884;10.010;2023-03-01T10:35:00;26.8;;;18.4;;
61570;SDS011;47463;49.884;10.010;2023-03-01T10:40:02;23.4;;;18.5;;
61570;SDS011;47463;49.884;10.010;2023-03-01T10:45:15;22.9;;;17.9;;
61570;SDS011;47463;49.884;10.010;2023-03-01T10:50:00;23.1;;;18.1;;
61570;SDS011;47463;49.884;10.010;2023-03-01T10:55:01;23.1;;;18.1;;
61570;SDS011;47463;49.884;10.010;2023-03-01T11:00:00;21.4;;;17.8;;
61570;SDS011;47463;49.884;10.010;2023-03-01T11:05:00;22.3;;;17.3;;
61570;SDS011;47463;49.884;10.010;2023-03-01T11:10:01;23.5;;;17.9;;
61570;SDS011;47463;49.884;10.010;2023-03-01T11:15:00;21.7;;;17.5;;
61570;SDS011;47463;49.884;10.010;2023-03-01T11:20:00;22.2;;;18.6;;
61570;SDS011;47463;49.884;10.010;2023-03-01T11:25:00;22.2;;;18.6;;
61570;SDS011;47463;49.884;10.010;2023-03-01T11:30:00;23.2;;;18.2;;
61570;SDS011;47463;49.884;10.010;2023-03-01T11:35:01;23.6;;;18.3;;
61570;SDS011;47463;49.884;10.010;2023-03-01T11:40:02;22.6;;;17.4;;
61570;SDS011;47463;49.884;10.010;2023-03-01T11:45:00;23.1;;;17.6;;
61570;SDS011;47463;49.884;10.010;2023-03-01T11:50:02;23.3;;;17.8;;
61570;SDS011;47463;49.884;10.010;2023-03-01T11:55:06;23.3;;;17.8;;
61570;SDS011;47463;49.884;10.010;2023-03-01T12:00:06;23.9;;;18.7;;
61570;SDS011;47463;49.884;10.010;2023-03-01T12:05:04;22.1;;;18;;
61570;SDS011;47463;49.884;10.010;2023-03-01T12:10:10;26.4;;;18.4;;
61570;SDS011;47463;49.884;10.010;2023-03-01T12:15:07;22;;;18.5;;
61570;SDS011;47463;49.884;10.010;2023-03-01T12:20:11;23.1;;;18.3;;
61570;SDS011;47463;49.884;10.010;2023-03-01T12:25:06;23.1;;;18.3;;
61570;SDS011;47463;49.884;10.010;2023-03-01T12:30:01;23.3;;;18.7;;
61570;SDS011;47463;49.884;10.010;2023-03-01T12:35:03;23.7;;;18.7;;
61570;SDS011;47463;49.884;10.010;2023-03-01T12:40:03;23.5;;;18.2;;
61570;SDS011;47463;49.884;10.010;2023-03-01T12:45:03;23.2;;;18;;
61570;SDS011;47463;49.884;10.010;2023-03-01T12:50:01;20.9;;;17.1;;
61570;SDS011;47463;49.884;10.010;2023-03-01T12:55:00;20.9;;;17.1;;
61570;SDS011;47463;49.884;10.010;2023-03-01T13:00:02;24.4;;;18.7;;
61570;SDS011;47463;49.884;10.010;2023-03-01T13:05:02;22.8;;;17.7;;
61570;SDS011;47463;49.884;10.010;2023-03-01T13:10:04;23.2;;;18;;
61570;SDS011;47463;49.884;10.010;2023-03-01T13:15:00;22.4;;;17.7;;
61570;SDS011;47463;49.884;10.010;2023-03-01T13:20:00;21;;;17.5;;
61570;SDS011;47463;49.884;10.010;2023-03-01T13:25:01;21;;;17.5;;
61570;SDS011;47463;49.884;10.010;2023-03-01T13:30:00;22.9;;;17.9;;
61570;SDS011;47463;49.884;10.010;2023-03-01T13:35:00;22.8;;;18.8;;
61570;SDS011;47463;49.884;10.010;2023-03-01T13:40:02;23.3;;;17.6;;
61570;SDS011;47463;49.884;10.010;2023-03-01T13:45:00;20.2;;;16.9;;
61570;SDS011;47463;49.884;10.010;2023-03-01T13:50:00;20.8;;;17.2;;
61570;SDS011;47463;49.884;10.010;2023-03-01T13:55:00;20.8;;;17.2;;
61570;SDS011;47463;49.884;10.010;2023-03-01T14:00:00;18.7;;;16.8;;
61570;SDS011;47463;49.884;10.010;2023-03-01T14:05:00;21.6;;;17.6;;
61570;SDS011;47463;49.884;10.010;2023-03-01T14:10:01;22;;;16.7;;
61570;SDS011;47463;49.884;10.010;2023-03-01T14:15:00;24.5;;;16.7;;
61570;SDS011;47463;49.884;10.010;2023-03-01T14:20:01;18.8;;;16.6;;
61570;SDS011;47463;49.884;10.010;2023-03-01T14:25:00;18.8;;;16.6;;
61570;SDS011;47463;49.884;10.010;2023-03-01T14:30:00;20.8;;;16.6;;
61570;SDS011;47463;49.884;10.010;2023-03-01T14:35:00;19.5;;;16.7;;
61570;SDS011;47463;49.884;10.010;2023-03-01T14:40:01;17.6;;;15.7;;
61570;SDS011;47463;49.884;10.010;2023-03-01T14:45:00;18.2;;;16.3;;
61570;SDS011;47463;49.884;10.010;2023-03-01T14:50:00;19.8;;;16.4;;
61570;SDS011;47463;49.884;10.010;2023-03-01T14:55:00;19.8;;;16.4;;
61570;SDS011;47463;49.884;10.010;2023-03-01T15:00:00;21.3;;;15.3;;
61570;SDS011;47463;49.884;10.010;2023-03-01T15:05:00;19.2;;;16.3;;
61570;SDS011;47463;49.884;10.010;2023-03-01T15:10:00;19;;;16.7;;
61570;SDS011;47463;49.884;10.010;2023-03-01T15:15:00;17.9;;;16.1;;
61570;SDS011;47463;49.884;10.010;2023-03-01T15:20:00;18.3;;;15.8;;
61570;SDS011;47463;49.884;10.010;2023-03-01T15:25:00;18.3;;;15.8;;
61570;SDS011;47463;49.884;10.010;2023-03-01T15:30:00;17.3;;;16;;
61570;SDS011;47463;49.884;10.010;2023-03-01T15:35:00;17;;;15.9;;
61570;SDS011;47463;49.884;10.010;2023-03-01T15:40:00;17.4;;;15.5;;
61570;SDS011;47463;49.884;10.010;2023-03-01T15:45:07;20.9;;;16.7;;
61570;SDS011;47463;49.884;10.010;2023-03-01T15:50:00;17.6;;;16.5;;
61570;SDS011;47463;49.884;10.010;2023-03-01T15:55:00;17.6;;;16.5;;
61570;SDS011;47463;49.884;10.010;2023-03-01T16:00:00;17.5;;;16.1;;
61570;SDS011;47463;49.884;10.010;2023-03-01T16:05:00;20.5;;;17.1;;
61570;SDS011;47463;49.884;10.010;2023-03-01T16:10:00;21.7;;;17.1;;
61570;SDS011;47463;49.884;10.010;2023-03-01T16:15:00;23.4;;;17.4;;
61570;SDS011;47463;49.884;10.010;2023-03-01T16:20:00;19.7;;;16.4;;
61570;SDS011;47463;49.884;10.010;2023-03-01T16:25:00;19.7;;;16.4;;
61570;SDS011;47463;49.884;10.010;2023-03-01T16:30:00;20.9;;;16.6;;
61570;SDS011;47463;49.884;10.010;2023-03-01T16:35:00;21.9;;;17.3;;
61570;SDS011;47463;49.884;10.010;2023-03-01T16:40:00;22.8;;;16.5;;
61570;SDS011;47463;49.884;10.010;2023-03-01T16:45:00;19.9;;;17.7;;
61570;SDS011;47463;49.884;10.010;2023-03-01T16:50:00;24.5;;;17.9;;
61570;SDS011;47463;49.884;10.010;2023-03-01T16:55:00;24.5;;;17.9;;
61570;SDS011;47463;49.884;10.010;2023-03-01T17:00:00;28.4;;;18.4;;
61570;SDS011;47463;49.884;10.010;2023-03-01T17:05:00;21.2;;;17.8;;
61570;SDS011;47463;49.884;10.010;2023-03-01T17:10:00;22.3;;;17.8;;
61570;SDS011;47463;49.884;10.010;2023-03-01T17:15:00;21.6;;;18;;
61570;SDS011;47463;49.884;10.010;2023-03-01T17:20:00;22.6;;;18.5;;
61570;SDS011;47463;49.884;10.010;2023-03-01T17:25:00;22.6;;;18.5;;
61570;SDS011;47463;49.884;10.010;2023-03-01T17:30:00;23.4;;;17.6;;
61570;SDS011;47463;49.884;10.010;2023-03-01T17:35:00;20.6;;;17.9;;
61570;SDS011;47463;49.884;10.010;2023-03-01T17:40:00;24.4;;;17.9;;
61570;SDS011;47463;49.884;10.010;2023-03-01T17:45:00;23.7;;;18.7;;
61570;SDS011;47463;49.884;10.010;2023-03-01T17:50:00;23.5;;;18.3;;
61570;SDS011;47463;49.884;10.010;2023-03-01T17:55:00;23.5;;;18.3;;
61570;SDS011;47463;49.884;10.010;2023-03-01T18:00:00;25.1;;;19.2;;
61570;SDS011;47463;49.884;10.010;2023-03-01T18:05:00;27;;;19.2;;
61570;SDS011;47463;49.884;10.010;2023-03-01T18:10:00;25.8;;;18.7;;
61570;SDS011;47463;49.884;10.010;2023-03-01T18:15:00;24;;;17.3;;
61570;SDS011;47463;49.884;10.010;2023-03-01T18:20:00;25.7;;;18.7;;
61570;SDS011;47463;49.884;10.010;2023-03-01T18:25:00;25.7;;;18.7;;
61570;SDS011;47463;49.884;10.010;2023-03-01T18:30:00;25.8;;;18.8;;
61570;SDS011;47463;49.884;10.010;2023-03-01T18:35:00;27.2;;;18.5;;
61570;SDS011;47463;49.884;10.010;2023-03-01T18:40:00;27.1;;;19;;
61570;SDS011;47463;49.884;10.010;2023-03-01T18:45:00;25.6;;;19.6;;
61570;SDS011;47463;49.884;10.010;2023-03-01T18:50:00;23.8;;;18.7;;
61570;SDS011;47463;49.884;10.010;2023-03-01T18:55:00;23.8;;;18.7;;
61570;SDS011;47463;49.884;10.010;2023-03-01T19:00:00;24.1;;;18.6;;
61570;SDS011;47463;49.884;10.010;2023-03-01T19:05:00;29.2;;;19.9;;
61570;SDS011;47463;49.884;10.010;2023-03-01T19:10:00;26;;;18.8;;
61570;SDS011;47463;49.884;10.010;2023-03-01T19:15:00;28.6;;;19.2;;
61570;SDS011;47463;49.884;10.010;2023-03-01T19:20:00;30.1;;;19.9;;
61570;SDS011;47463;49.884;10.010;2023-03-01T19:25:00;30.1;;;19.9;;
61570;SDS011;47463;49.884;10.010;2023-03-01T19:30:00;26.6;;;18.6;;
61570;SDS011;47463;49.884;10.010;2023-03-01T19:35:00;29.7;;;19.8;;
61570;SDS011;47463;49.884;10.010;2023-03-01T19:40:00;42.3;;;20.1;;
61570;SDS011;47463;49.884;10.010;2023-03-01T19:45:00;31.4;;;20.5;;
61570;SDS011;47463;49.884;10.010;2023-03-01T19:50:00;30.5;;;20.2;;
61570;SDS011;47463;49.884;10.010;2023-03-01T19:55:00;30.5;;;20.2;;
61570;SDS011;47463;49.884;10.010;2023-03-01T20:00:00;31.7;;;20.8;;
61570;SDS011;47463;49.884;10.010;2023-03-01T20:05:00;31;;;20.2;;
61570;SDS011;47463;49.884;10.010;2023-03-01T20:10:00;31.4;;;19.5;;
61570;SDS011;47463;49.884;10.010;2023-03-01T20:15:00;30;;;19.8;;
61570;SDS011;47463;49.884;10.010;2023-03-01T20:20:00;28.2;;;20;;
61570;SDS011;47463;49.884;10.010;2023-03-01T20:25:00;28.2;;;20;;
61570;SDS011;47463;49.884;10.010;2023-03-01T20:30:00;28.1;;;19.2;;
61570;SDS011;47463;49.884;10.010;2023-03-01T20:35:00;27.7;;;19.6;;
61570;SDS011;47463;49.884;10.010;2023-03-01T20:40:00;30.2;;;20;;
61570;SDS011;47463;49.884;10.010;2023-03-01T20:45:00;27.9;;;19.6;;
61570;SDS011;47463;49.884;10.010;2023-03-01T20:50:00;34.3;;;21;;
61570;SDS011;47463;49.884;10.010;2023-03-01T20:55:00;34.3;;;21;;
61570;SDS011;47463;49.884;10.010;2023-03-01T21:00:00;34.1;;;22.4;;
61570;SDS011;47463;49.884;10.010;2023-03-01T21:05:00;30.3;;;20.3;;
61570;SDS011;47463;49.884;10.010;2023-03-01T21:10:00;32.5;;;21.5;;
61570;SDS011;47463;49.884;10.010;2023-03-01T21:15:00;27.7;;;19.8;;
61570;SDS011;47463;49.884;10.010;2023-03-01T21:20:00;29.2;;;20.2;;
61570;SDS011;47463;49.884;10.010;2023-03-01T21:25:00;29.2;;;20.2;;
61570;SDS011;47463;49.884;10.010;2023-03-01T21:30:00;28.3;;;19.8;;
61570;SDS011;47463;49.884;10.010;2023-03-01T21:35:00;32.6;;;21;;
61570;SDS011;47463;49.884;10.010;2023-03-01T21:40:00;33.5;;;21.1;;
61570;SDS011;47463;49.884;10.010;2023-03-01T21:45:00;31.6;;;21.2;;
61570;SDS011;47463;49.884;10.010;2023-03-01T21:50:00;32.3;;;20.6;;
61570;SDS011;47463;49.884;10.010;2023-03-01T21:55:00;32.3;;;20.6;;
61570;SDS011;47463;49.884;10.010;2023-03-01T22:00:00;32.9;;;20.9;;
61570;SDS011;47463;49.884;10.010;2023-03-01T22:05:00;31.4;;;20.5;;
61570;SDS011;47463;49.884;10.010;2023-03-01T22:10:00;33.1;;;21.1;;
61570;SDS011;47463;49.884;10.010;2023-03-01T22:15:00;29.5;;;20.7;;
61570;SDS011;47463;49.884;10.010;2023-03-01T22:20:00;35.4;;;21.1;;
61570;SDS011;47463;49.884;10.010;2023-03-01T22:25:00;35.4;;;21.1;;
61570;SDS011;47463;49.884;10.010;2023-03-01T22:30:00;32.4;;;20.8;;
61570;SDS011;47463;49.884;10.010;2023-03-01T22:35:00;39.3;;;21.8;;
61570;SDS011;47463;49.884;10.010;2023-03-01T22:40:00;35;;;21.4;;
61570;SDS011;47463;49.884;10.010;2023-03-01T22:45:00;36.3;;;22.1;;
61570;SDS011;47463;49.884;10.010;2023-03-01T22:50:00;33.2;;;21.9;;
61570;SDS011;47463;49.884;10.010;2023-03-01T22:55:00;33.2;;;21.9;;
61570;SDS011;47463;49.884;10.010;2023-03-01T23:00:00;35.3;;;22.6;;
61570;SDS011;47463;49.884;10.010;2023-03-01T23:05:00;42.4;;;23.2;;
61570;SDS011;47463;49.884;10.010;2023-03-01T23:10:00;35.8;;;22;;
61570;SDS011;47463;49.884;10.010;2023-03-01T23:15:00;35.4;;;22;;
61570;SDS011;47463;49.884;10.010;2023-03-01T23:20:00;32.8;;;21.8;;
61570;SDS011;47463;49.884;10.010;2023-03-01T23:25:00;32.8;;;21.8;;
61570;SDS011;47463;49.884;10.010;2023-03-01T23:30:00;35;;;20.9;;
61570;SDS011;47463;49.884;10.010;2023-03-01T23:35:00;31.5;;;21.3;;
61570;SDS011;47463;49.884;10.010;2023-03-01T23:40:00;34.3;;;20.9;;
61570;SDS011;47463;49.884;10.010;2023-03-01T23:45:00;37.6;;;22.1;;
61570;SDS011;47463;49.884;10.010;2023-03-01T23:50:00;34.5;;;21.9;;
61570;SDS011;47463;49.884;10.010;2023-03-01T23:55:00;34.5;;;21.9;;
